GearBest割引クーポン情報まとめ! 2017年3月最新版

      2017/03/15  

gearbest-3

GearBestの超お得な割引クーポンコードまとめ!

日本で買うより安いのに「クーポンコードを入力するだけ」でより安くなるのでお得ですよ。

クーポンコードは随時更新するので要チェック

クーポンの使い方

カート画面で「販売促進コード」に入力して「適用」を押すだけ。

gomaruyon2016_00067-2

SPONSORED LINK


クーポンコード一覧

GearBest3周年記念

量が多すぎるので別ページにまとめました。

・商品名:「Xiaomi Air 13 Laptop 」
・商品ページ:http://www.gearbest.com/laptops/pp_421980.html
・クーポンコード:XAir13
・クーポン後価格:81084円
・限定回数:46

・クーポンコード:GB3RDAir13
・クーポン後価格:75363円
・限定回数:100

あまりにもクーポンコードの数が多いので、下の検索から欲しい商品検索してね。

GearBest割引クーポン 2017年3月

開始時間
(日本時間)
商品名クーポンコード割引後(掲載時)限定数(時間)
2017/3/22Xiaomi Redmi Note 4X 灰色Note4XGB19414円300
2017/3/22Xiaomi Redmi Note 4X 金色Note4XGBS19414円200
2017/3/22Meizu MX6 国際版GMeizuS22840円50
2017/3/22ASUS ZenFone Zoom ZX551MLASUSG27408円50
2017/3/22Xiaomi Air 13 Laptop - WINDOWS 103rdAir13s699.99ドル150
2017/3/22AXON 7 Mini AXONGBS30834円80
2017/3/22標準版 Xiaomi Mi5s金色Mi5R30149円200
2017/3/22標準版 Xiaomi Mi5s 灰色Mi5sA31405円100
2017/3/21Oukitel U7 MaxU7Max7194円100
2017/3/21Xiaomi Redmi Note 4X GNote4X17929円50
2017/3/21DJI Phantom 3 Standard RC Quadcopter - RED 3GBDJI50135円36
2017/3/20Xiaomi Mi MIX 259GB MIXS71948円100
2017/3/20 XiaoMi Mi5 国際版mi5GB3226266円300
2017/3/20 Xiaomi Mi5s 標準版Mi5sA31405円100
2017/3/20Chuwi Hi12chuwiGB3RD0325124円100
2017/3/20Xiaomi Redmi 4 高配版 Redmi4R15873円100
2017/3/8XiaoMi Mi5 64GBMi564GBAB25124円100
2017/3/8Xiaomi Redmi Note 4XNote4XS18272円100
2017/3/8Xiaomi Redmi 4 高配版GBRedmi417130円100
2017/3/8UMI Plus E 6GB RAM+ 64GB ROM GBPLUSE25581円100
2017/3/8UMI ZGBUMIZ26266円100
2017/3/8Xiaomi Bluetooth 4.0 Body Fat ScaleXMS3RD6623円200
2017/3/8Xiaomi Redmi Note 4X 4xGB176.99ドル500
2017/3/8Xiaomi Redmi Note 4X notex3GB169.99ドル100
2017/3/8Xiaomi Air 12Air1216509.99ドル100
2017/3/8Xiaomi Redmi 4 高配版red3GBS149.99ドル105
2017/3/8ASUS ZenFone 2 ( ZE551ML )ze3GB109.99ドル50
2017/3/8CHUWI HI10 PLUS 双系統PLUSPC179.99ドル100
2017/3/8Cube iWork 10 旗艦版iWork104145.99ドル32
2017/3/8Original Xiaomi Smart Mi Air PurifierGBMiAirP143.99ドル78
2017/3/8Xiaomi Mijia Smart LED Desk Lamp 3RDGBXM38.99ドル150
2017/3/8XiaoMi Mi Pad 2 mipad223229.99ドル100
2017/3/8XiaoMi Mi Pad 2 16GB ROMMipad6164.99ドル100
2017/3/8XiaoMi Mi5 64GBmi5GB32229.99ドル200
2017/3/8Vernee ApolloApolloGB239.99ドル100
2017/3/8Original Xiaomi Philips Eyecare Smart Lamp 23RDGBXP49.99ドル100
2017/3/7Xiaomi Air 12GBBLOG54817円30
2017/3/7Xiaomi Air 12Air121658243円100
2017/3/7CHUWI HI10 PLUS Windows 10 + Remix OS 2.0PLUSPC179.99ドル100
2017/3/7XiaoMi Mi5 64GBMi564GBA27408円500
2017/3/7Xiaomi Redmi Note 4XNote4XR20556円300
2017/3/7Elephone ELECAM Explorer S 4K Action Camera GBEXS4453円100
2017/3/6OnePlus 3T 高配版128GBOnePlus3S60299円50
2017/3/6高配版 Xiaomi Redmi Note 4 64GBNote4GBA20556円100
2017/3/6Xiaomi Redmi Note 4国際版3GB RAM + 32GB ROMNote4SA18272円100
2017/3/6Xiaomi Redmi 4国際版3GB RAM + 32GB ROMRedmi4GBS18272円500
2017/3/6Xiaomi Redmi Note 4XNote4X19414円50
2017/3/6標準版 Xiaomi Mi5sGBMi5a35402円50
2017/3/6Xiaomi Redmi 4A Redmi4AGS12790円50
2017/3/6XiaoMi Mi Pad 2 16GBMipad618843円100
2017/3/6Joyetech Avatar VapeNut Air PurifierGB3RDJOY7993円50
2017/3/6Beelink AP42 Mini PC - US PLUG GBAP4220556円100
2017/3/4Original Elephone ELE Explorer 4KGBALL5709円100
2017/3/4FuriBee Q6 WiFi 4K Ultra HD Action Sport CameraFuriBeeQ63996円200
2017/3/4Original Xiaomi Mi Robot VacuumXIAOMIVAC41113円200
2017/3/4Lenovo PHAB 4G PhabletPhab411419円50
2017/3/4Teclast X80 Power Tablet PCX80power411419円30
2017/3/4CHUWI LapBook 15.6 inchChuwilap321698円70
2017/3/4Chuwi Hi12 12.0 inch Tablet PC 26940円150
2017/3/4Cube iWork 10 Flagship Ultrabook Tablet PC Type-C iWork10416901円100
2017/3/4高配版 Xiaomi Redmi Note 4XiaomiRedA21127円400
2017/3/4Xiaomi Mi Note 2 高配版MiNOYE63954円50
2017/3/4Xiaomi Redmi 4高配版XiaomiR164.99300
2017/3/4Xiaomi Redmi 4 低配版Redmi4GM14503円300
2017/3/4Xiaomi Redmi 4高配版RedmiA4G 20556円200
2017/3/4Motorola MOTO X MOTOAB33461円100
2017/3/4Xiaomi Redmi Note 4XNote4X4G20556円200
2017/3/2Cube WP10 4G Phablet WP10212561円100
2017/3/2Chuwi Hi12Hi12227408円100
2017/3/2Xiaomi Redmi 4A 国際版Redmi4AG13475円100
2017/3/2AXON 7 Mini AXONG33118円50
2017/3/2Xiaomi Mi5s 128GBMi5A4G42255円100
2017/3/2FrSky TARANIS Q X7 2.4GHz 7CH Transmitter - WHITE TARANISX713705円100
2017/3/2XBM - 52W Mini RC Racing Quadcopter - COLORMIX フラッシュセール2425円69
2017/3/2Jule 23211 1:20 RC Car - RTRJule112009円3月31日
2017/3/2Jule 23212 1:20 RC Car - RTR - GREEN Jule122009円3月31日
2017/3/1Original Xiaomi Mi Band 2Band2GB2557円3000
2017/3/1Xiaomi Smart 1080P WiFi IP Camera Official VersionXMWiFiIP2728円400
2017/3/1Somic G941 7.1 Virtual Sound USB Gaming Headset Dlodlo3425円200
2017/3/1Somic G941 Active Noise Cancelling USB Gaming HeadsetG9414910円200
2017/3/1AUSDOM S07 Wireless Bluetooth V4.1 Sport Earphone 一掃セール798円
2017/3/1Teclast x80 plusx80plus19135円150
2017/3/1Cube Mix PlusCubemix138829円50
2017/3/1XING Heart Rate MonitorXGHMYY1484円50
2017/3/1Xiaomi Redmi Note 3 Pro国際版Note3PR19414円500
2017/3/1Lenovo ZUK Z2 ZUKZ2L19414円300
2017/3/1Xiaomi Redmi Note 4NOTEM21698円200

SPONSORED LINK


最新2017年2月クーポンコード

開始時間
(日本時間)
商品名クーポンコード割引後(掲載時)限定数(時間)
2017/2/24国際版 Xiaomi Redmi Note 3 Pro REXM20213円300
2017/2/24Xiaomi Redmi 4A Redmi4A12561円100
2017/2/24 高配版 Xiaomi Redmi Note 4 国際版MIUI 8RedmiAB19642円100
2017/2/24Xiaomi Mi Note 2国際版MINOTE2S71948円100
2017/2/23KingWear kw18 黒・シャンパン・銀kw18AB4681円100
2017/2/23尊享版 XiaoMi Mi5Mi5ABG45110円100
2017/2/23Xiaomi Mi5s 国際バージョンMi5sGAB37115円150
2017/2/23高配版 Xiaomi Redmi Note 4 国際版 MIUI 8Note4AB22611円100
2017/2/23Umi Max UmiAB15988円100
2017/2/23Acrylic 3DCSTAR P802-MHS 3D Printer - EU PLUG BLACK 3DSUAN18272円100
2017/2/22Lenovo ZUK Z2ZUKAB20556円300
2017/2/22OnePlus 3TOP3TAB50249円200
2017/2/22Xiaomi Redmi Note 4X シャンパンNote4XAB21698円100
2017/2/22Finow X5 PLUSスマート・ウォッチFINOWAB11876円50
2017/2/22Original Xiaomi In-ear Hybrid Earphones ProHEXM2740円500
2017/2/22H9R 170 Degree Wide Angle 4K Ultra HD WiFi Action CameraGBH9R5252円3月20日
2017/2/22Wenpod GP1+ Handheld Stabilizer for GoPro 3 / 3+ / 4 - BLACKGBWenpod10963円4月30日
2017/2/22VOYO VBOOK V3 Notebook VoyoV32234260円30
2017/2/22Cube Mix Plus 2 in 1 Tablet PCCubemix2139971円50
2017/2/21Xiaomi Mi Note 2 note2MIJP72633円50
2017/2/21VOYO V1 Mini PC Intel Pentium N4200 - US PLUG TYRANT GOLD VOYOV1MJP 25124円5
2017/2/21Xiaomi Wireless Bluetooth 4.1 Music Sport EarbudsXiaomiW3311円300
2017/2/20Xiaomi Redmi 4A Redmi4A12904円200
2017/2/20Elephone S7Elephone726266円100
2017/2/20Finow X5 PLUS FinowXS12105円50
2017/2/20Xiaomi Smart 1080P WiFi IP Camera XMWiFiIP2728円500
2017/2/20KT003 Arduino UNO Starter Kit with Bread Plate / Sensor / LED Light for DIY PartsKT3CODE2055円100
2017/2/20Yeelight Smart LED Ceiling LightGloudsGbuy8564円80
2017/2/20Yeelight Smart LED Ceiling LightCeilingGB8564円70
2017/2/18Xiaomi Redmi 4 高配版 国際版MIUI 821698円102
2017/2/18AXON 7 Mini 金AXMini34260円100
2017/2/18ZTE AXON 7 Mini グレーAXMini34260円100
2017/2/18Xiaomi Redmi 4 低配版RE4X15417円200
2017/2/18ZTE Axon Elite (国際版 )ZTEGBS18957円100
2017/2/18DOMINO DM98スマート・ウォッチDM988336円50
2017/2/18Gocomma Tempered Glass Film for Xiaomi Redmi Note 3 Pro gocomma33341円1000
2017/2/18Xiaomi Redmi Note 4X 4G Phablet - 3GB RAM 32GB ROM 33685円
2017/2/17ASUS ZenFone 2 ( ZE551ML )グレー赤青金白ピンクZE551MS15074円500
2017/2/17LeTV Leeco Le Max 2 LeMax2S24553円100
2017/2/17DOMINO DM368DM36810049円50
2017/2/16Xiaomi Air 12 Laptop (銀)GB12LPC65096円300
2017/2/16Xiaomi Air 13 Laptop (銀)GB13LP84511円300
2017/2/16高配版 (国际版MIUI8 ROM) Xiaomi Mi5sMi54GGB44539円50
2017/2/16高配版 刷机 国际版 XiaoMi Mi5(白)MI5GBX28550円400
2017/2/16高配版 刷机 国际版 XiaoMi Mi5(金)MI5GBX28550円400
2017/2/16国际版 Xiaomi Redmi Note 3 ProREXM20442円100
2017/2/16OnePlus 3TOPTGBS51048円100
2017/2/16标准版 XiaoMi Mi5MI5GB328550円100
2017/2/16Original Xiaomi Headphones - WHITEOXIAOM4567円148
2017/2/16Xiaomi Smart 1080P WiFi IP Camera Official Version - WHITEXMWiFiIP3082円800
2017/2/15XING Heart Rate Monitorフラッシュセール1826円30
2017/2/15Ganzo G727M-W1 Axis Lock Pocket Knife727MGB1449円3月1日
2017/2/15Hoverboard Kart Seat AttachmentHBKSGB6737円3月1日
2017/2/15Xiaomi Mi5sMI5SXGB32319円96
2017/2/15MinSu TR2015 Robotic Vacuum CleanerMISUTR14846円100
2017/2/15AODMA ST - 807A Portable Ozone SterilizerAODMA2967円40
2017/2/13OnePlus 3T OPTGBS51277円100
2017/2/13 XiaoMi Mi5 国際版XIMIS29692円100
2017/2/13Xiaomi Redmi Note 4 4G Phablet - 64GB ROM GOLDENREDNO22269円100
2017/2/13Xiaomi Redmi 4 4G Smartphone - INTERNATIONAL EDITION MIUI 8 GOLDEN XIREDMI18843円500
2017/2/11Hawkeye Firefly 7S 2160P WiFi FPV Action CameraGBFirefly7536円50
2017/2/11Xiaomi Redmi Pro 32GB 4G PhabletRPXM21698円100
2017/2/11Lenovo ZUK Z2 64GB ROM 4G4GXIMI21698円300
2017/2/10Xiaomi Mi5s Mi5GSB33118円150
2017/2/9Xiaomi Mi Max27408円40
2017/2/9MEIZU M3S12561円98
2017/2/9UMI Plus EUMIES25124円200
2017/2/9Jumper EZBOOK 3 NotebookEZB3IT28550円50
2017/2/9HIGOLE GOLE360 360 Degree Panorama VR Action Camera GOLE36011419円3月9日
2017/2/8JP MTP - II Portable 58MM Bluetooth Thermal PrinterJPMTP3768円100
2017/2/8YUNDOO Y8 TV BoxGBYDY814846円100
2017/2/7Teclast Tbook 16 PowerPowerGBB37687円50
2017/2/7GPD WIN GamePadGPDGB37687円50
2017/2/7Ifive Mini 4SIfiveGB14846円30
2017/2/7Xiaomi Mi Note 2 NoteSXM74232円80
2017/2/7Huawei Honor 8 HuaweiS39971円150
2017/2/6CHUWI Hi10 ProHi10pcc19414円150
2017/2/6Chuwi Hi12 hi12pcc239.99ドル100
2017/2/6VOYO VBOOK V3 v3apollo39742円30
2017/2/6Chuwi Hi8hi8pc9135円100
2017/2/6Xiaomi Redmi 4XMRGB13703円100
2017/2/6Xiaomi Redmi 3S XRSGB14846円100
2017/2/4Teclast Tbook 11book11PC18272円150
2017/2/4Onda V80 PlusV80PC9935円100
2017/2/4CHUWI LapBooklaptop1122269円50
2017/2/4Jumper Ezbook 2ezbookpc 20099円100
2017/2/4Lenovo TAB 2 TAB2pc10963円30
2017/2/4Lenovo TAB 2 TAB2pcc10963円30
2017/2/4ZTE AXON 745681円25
2017/2/4Xiaomi Mi Max27408円103
2017/2/4Ulefone Power15988円33
2017/2/4Original YI II International Version WiFi 4K Sports Action Camera 22840円299
2017/2/4Elephone S7 4G Phablet23982円100
2017/2/3XiaoMi Mi Pad 2 16GB16GBPC19185円50
2017/2/3Cube iwork1xiwork1xPC 19414円50
2017/2/3CHUWI HI10 PLUS PLUSPC20556円50
2017/2/3CHUWI LapBook22840円100
2017/2/3Onda oBook10 Pro 25124円100
2017/2/3Lenovo PHAB14119円100
2017/2/3Xiaomi Mi5s Plus XXMP5S48764円34
2017/2/3Vernee Apollo Lite 20556円200
2017/2/3DOOGEE X5 MAX Pro 9820円88
2017/2/3Xiaomi Smart 1080P WiFi IP Camera Official VersionGBXFZSB2740円500
2017/2/2UMI Super 4G Phablet UMISUPER418843円100
2017/2/2Xiaomi Redmi Pro 4G Phablet 64GB ROMXMPRO21584円30
2017/2/2Lenovo ZUK Z2 64GB ROM 4G SmartphoneZUKS19756円90
2017/2/2XiaoMi Mi Pad 2 - WINDOWS 10 CHAMPAGNEMiPad2126266円80

SPONSORED LINK


2017年1月クーポンコード

開始時間
(日本時間)
商品名クーポンコード割引後(掲載時)限定数(時間)
2017/1/4ILIFE V7S Pro Smart Robotic Vacuum Cleaner - PINK ILIFEV7SPRO186.99ドル
2017/1/25CHUWI Hi10 Pro 2 in 1 Ultrabook Tablet PC with Keyboard 201.99ドル150
2017/1/25Chuwi Hi10 Ultrabook Tablet PC 18272円150
2017/1/25PPTV 7 4G Phablet 12561円200
2017/1/25Elephone S7 26266円300
2017/1/24ASUS ZenFone 2 ( ZE551ML ) 4G Phablet 15988円500
2017/1/24Vernee Apollo 4G Phablet 269.99ドル300
2017/1/24XiaoMi Mi Pad 2 16GB ROMMiPad2417929円100
2017/1/24Original Xiaomi Philips Eyecare Smart Lamp 2 XMPE2 5823円250
2017/1/23Teclast Tbook 10 S 2 in 1 Tablet PC18843円80
2017/1/23GPD WIN GamePad Tablet PCGBTPC35630円100
2017/1/23XiaoMi Mi Pad 2 16GB ROMMiPad2417929円100
2017/1/23OnePlus 3T51391円400
2017/1/23OUKITEL U1314846円400
2017/1/23ILIFE V5 Pro Intelligent Robotic Vacuum CleanerV5SMT13818円100
2017/1/23ILIFE A4 Smart Robotic Vacuum CleanerIlifeA4MT15302円100
2017/1/23Alfawise B3000 Smart Robotic Vacuum CleanerAlfawiseB14503円150
2017/1/23Cop Rose Smart Robot Window CleanerCopRose18157円50
2017/1/23Original Xiaomi Mi Robot VacuumMIROBOT38372円50
2017/1/17Teclast Tbook 16 Power Tablet PCTEC16DE34433円30
2017/1/17CHUWI LapBook Windows 10 LaptopCHULAPIT21128円80
2017/1/17CHUWI HI10 PLUS Tablet PCGBPC-chuwi23639円100
2017/1/17Yeelight Smart LED Ceiling LightCeilingGB9935円100
2017/1/17Xiaomi 5 in 1 Smart Home Security Kit WPFR6623円250
2017/1/17Original Xiaomi Mi WiFi 300M Amplifier 2 MIAMPIT913円100
2017/1/13Xiaomi Mi Note 2 Global Version 4G Phablet78800円29
2017/1/13Umi PlusGBUmiPlus19414円300
2017/1/13Lenovo ZUK Z2 64GB ROMZUK2WJP19871円40
2017/1/13OnePlus 3T 4G Phabletoneplusnh 48308円30
2017/1/13Letv Leeco Le 2 X527LETVX527JP19642円30
2017/1/13Original Xiaomi Mi WiFi 300M Amplifier 2 - CHINESE VERSION WHITEmiwifi21027円500
2017/1/11GPD WIN China倉庫GPDWIN0139971円100
2017/1/11Xiaomi Redmi 4 HK倉庫XIAMIG16673円500
2017/1/11Xiaomi Redmi 4 HK倉庫REMI413703円500
2017/1/11MEIZU M3S HK倉庫M3SGB14846円200
2017/1/11OnePlus 3 4G Smartphone China倉庫OP4G47280円100
2017/1/11Excelvan F1 Floating Music Player China倉庫FFMP14846円100
2017/1/11Onda OBook 20 Plus Tablet PC China倉庫17130円100
2017/1/7Teclast Tbook 10 S 2 in 1 Tablet PCTbook10S174.99ドル50
2017/1/7 Elephone S7 EPSGB211.99ドル200
2017/1/7XiaoMi Mi4 Mi42GB4G107.99ドル
2017/1/7FIIL DIVA Bluetooth 4.1 HiFi Active Noise-canceling HeadphonesLHWF159.00ドル
2017/1/7FIIL DIVA Pro Bluetooth 4.1 HiFi Music Headphones - BLACKLHWF259.00ドル
2017/1/5Original Xiaomi Mi Robot VacuumXIAOMIVAC335.99ドル2017/1/31
2017/1/5HIZERO Multifunctional Bionic Floor CleanerHIZERO359.99ドル2017/1/31
2017/1/5Xiaomi Air 13 LaptopMiair1304739.99ドル100
2017/1/5Teclast Tbook 16 PowerPower04329.99ドル100
2017/1/5Bluetooth Laser Projection Virtual Keyboard with LCD Display - BLACKLCDGB31.99ドル
2017/1/4ZTE AXON 7 4G Phablet - GRAYZteAJP397.99ドル50
2017/1/4DIY Raspberry Pi Model 3 B Motherboard - ENGLISH VERSION GREENModelJP334.99ドル30
2017/1/4Xiaomi Redmi 4 金色XIAOMI4GS144.99ドル300
2017/1/4Xiaomi Redmi 4 銀色REMI145.29ドル500
2017/1/4 Xiaomi Redmi Note 4 64GB銀色フラッシュセール169.99ドル200
2017/1/4 Xiaomi Redmi Note 4 64GB金色フラッシュセール169.99ドル200
2017/1/4UMi Z 4G Phablet - GRAYフラッシュセール219.99ドル
2017/1/4Xiaomi Redmi Note 4 4G PhabletXIMI4G163.99ドル300
2017/1/4Teclast X80 Power Tablet PC - GOLDENX80Powersy89.99ドル100
2017/1/4PIMAX 4K UHD Virtual Reality 3D PC Headset - WITH EARPHONES BLACK LHPIMAX359ドル
キャンペーン情報
当ブログ限定クーポン!AUKEY Bluetoothヘッドセット EP-B31が3月24日まで半額!

Amazonで年間300個以上の商品を買ってる筆者がオススメするプライム会員! その紹介記事を書いたので良かったら見てね。 (`・ω・´)→【2017年】Amazonプライム会員だと購入額の1%が戻ってくる!?

この記事が気に入ったら
いいね!しよう

最新情報をお届けします

Twitterでgomaruyon.comの最新情報GET!!

関連記事

 - GearBest, 海外通販



  関連記事